EHWO

Woensdrecht Air Base Airport

Bergen Op Zoom, The Netherlands
METAR EHWO 170255Z AUTO 23001KT 1800 BR BKN000 OVC240 10/09 Q1017 RED
Observed Flight Rules
Oct-17 @ 02:55 UTC (15 minutes ago) Instrument Flight Rules
Wind Visibility Clouds Conditions
230° at 1 knots 1,802 meters
  • Broken
  • Overcast at 24,000' AGL
  • Mist
Temperatures Readings
Current 10°C / 50°F
Dewpoint 9°C / 48°F
Humidity 94%
Altimeter 30.03" Hg
Pressure 1017 hPa
Elevation 17
METAR EHWO 170255Z AUTO 23001KT 1800 BR BKN000 OVC240 10/09 Q1017 RED
Observed Flight Rules
Oct-17 @ 02:55 UTC
(15 minutes ago)
LIFR
Wind Visibility
230° at 1 knots 1,802 meters
Clouds
  • Broken
  • Overcast at 24,000' AGL
Conditions
  • Mist
Temperature Dewpoint
10°C / 50°F 9°C / 48°F
Humidity Altimeter Pressure
94% 30.03" Hg 1017 hPa